createdAt,value
2023-01-10T00:01:52.918Z,19.60
2023-01-10T00:04:21.143Z,19.60
2023-01-10T00:06:49.143Z,19.60
2023-01-10T00:09:18.483Z,19.60
2023-01-10T00:12:04.125Z,19.60
2023-01-10T00:14:34.880Z,19.60
2023-01-10T00:17:03.067Z,19.50
2023-01-10T00:19:31.290Z,19.50
2023-01-10T00:22:05.643Z,19.60
2023-01-10T00:24:34.999Z,19.70
2023-01-10T00:27:03.042Z,19.60
2023-01-10T00:29:31.828Z,19.40
2023-01-10T00:31:59.869Z,19.50
2023-01-10T00:34:27.973Z,19.40
2023-01-10T00:36:55.909Z,19.50
2023-01-10T00:39:27.282Z,19.60
2023-01-10T00:42:14.258Z,19.70
2023-01-10T00:44:42.219Z,19.40
2023-01-10T00:47:10.233Z,19.50
2023-01-10T00:49:38.239Z,19.40
2023-01-10T00:52:06.493Z,19.50
2023-01-10T00:54:34.928Z,19.30
2023-01-10T00:57:04.264Z,19.50
2023-01-10T00:59:32.205Z,19.50
2023-01-10T01:02:00.350Z,19.20
2023-01-10T01:04:28.385Z,19.50
2023-01-10T01:06:57.186Z,19.60
2023-01-10T01:09:26.295Z,19.30
2023-01-10T01:11:56.045Z,19.40
2023-01-10T01:14:26.250Z,19.50
2023-01-10T01:16:55.590Z,19.50
2023-01-10T01:19:23.839Z,19.40
2023-01-10T01:21:51.827Z,19.60
2023-01-10T01:24:21.342Z,19.20
2023-01-10T01:26:49.288Z,19.30
2023-01-10T01:29:18.116Z,19.40
2023-01-10T01:31:47.626Z,19.30
2023-01-10T01:34:15.885Z,19.40
2023-01-10T01:36:43.868Z,19.40
2023-01-10T01:39:11.996Z,19.20
2023-01-10T01:41:58.144Z,19.20
2023-01-10T01:44:31.389Z,19.40
2023-01-10T01:47:08.424Z,19.20
2023-01-10T01:49:40.578Z,19.60
2023-01-10T01:52:17.010Z,19.60
2023-01-10T01:54:45.099Z,19.50
2023-01-10T01:57:18.655Z,19.30
2023-01-10T01:59:49.506Z,19.60
2023-01-10T02:02:24.787Z,19.20
2023-01-10T02:04:58.609Z,19.40
2023-01-10T02:07:30.571Z,19.30
2023-01-10T02:10:04.799Z,19.30
2023-01-10T02:12:34.173Z,19.10
2023-01-10T02:15:04.439Z,19.40
2023-01-10T02:17:33.737Z,19.30
2023-01-10T02:20:04.893Z,19.60
2023-01-10T02:23:26.441Z,19.50
2023-01-10T02:26:22.413Z,19.20
2023-01-10T02:29:19.462Z,19.40
2023-01-10T02:32:35.500Z,19.30
2023-01-10T02:35:34.349Z,19.20
2023-01-10T02:38:10.920Z,19.20
2023-01-10T02:40:48.964Z,19.40
2023-01-10T02:43:21.086Z,19.40
2023-01-10T02:45:54.149Z,19.50
2023-01-10T02:48:23.697Z,19.60
2023-01-10T02:50:58.547Z,19.40
2023-01-10T02:53:31.086Z,19.20
2023-01-10T02:56:37.802Z,19.50
2023-01-10T03:00:03.435Z,19.60
2023-01-10T03:02:46.340Z,19.20
2023-01-10T03:05:27.654Z,19.20
2023-01-10T03:08:09.006Z,18.90
2023-01-10T03:10:44.209Z,19.20
2023-01-10T03:13:17.424Z,19.20
2023-01-10T03:15:47.012Z,19.20
2023-01-10T03:18:19.599Z,19.20
2023-01-10T03:20:52.768Z,18.80
2023-01-10T03:23:23.711Z,19.00
2023-01-10T03:25:53.565Z,19.40
2023-01-10T03:28:30.434Z,19.20
2023-01-10T03:31:03.354Z,19.20
2023-01-10T03:33:34.521Z,19.10
2023-01-10T03:36:16.651Z,19.10
2023-01-10T03:38:49.708Z,19.30
2023-01-10T03:41:31.651Z,19.20
2023-01-10T03:44:29.338Z,19.10
2023-01-10T03:47:05.884Z,19.10
2023-01-10T03:49:37.052Z,19.20
2023-01-10T03:52:08.375Z,19.10
2023-01-10T03:54:36.414Z,19.10
2023-01-10T03:57:04.641Z,19.30
2023-01-10T03:59:32.909Z,19.10
2023-01-10T04:02:01.103Z,19.50
2023-01-10T04:04:29.237Z,19.20
2023-01-10T04:06:57.223Z,19.20
2023-01-10T04:09:26.558Z,18.90
2023-01-10T04:11:54.535Z,19.50
2023-01-10T04:14:22.727Z,19.00
2023-01-10T04:16:50.955Z,19.20
2023-01-10T04:19:18.944Z,19.40
2023-01-10T04:21:46.928Z,19.40
2023-01-10T04:24:14.953Z,19.40
2023-01-10T04:26:44.758Z,19.10
2023-01-10T04:29:12.814Z,19.20
2023-01-10T04:31:41.059Z,19.40
2023-01-10T04:34:10.256Z,19.20
2023-01-10T04:36:38.323Z,19.10
2023-01-10T04:39:06.648Z,19.10
2023-01-10T04:41:34.869Z,19.10
2023-01-10T04:44:04.420Z,19.00
2023-01-10T04:46:33.269Z,19.40
2023-01-10T04:49:01.661Z,19.20
2023-01-10T04:51:30.001Z,18.90
2023-01-10T04:53:58.151Z,19.10
2023-01-10T04:56:27.015Z,19.30
2023-01-10T04:58:55.182Z,18.90
2023-01-10T05:01:27.049Z,19.30
2023-01-10T05:03:57.242Z,19.30
2023-01-10T05:06:25.838Z,19.40
2023-01-10T05:08:54.761Z,19.10
2023-01-10T05:11:23.083Z,18.80
2023-01-10T05:13:51.473Z,19.10
2023-01-10T05:16:19.615Z,19.10
2023-01-10T05:18:49.112Z,19.10
2023-01-10T05:21:17.663Z,19.00
2023-01-10T05:23:45.767Z,19.00
2023-01-10T05:26:16.275Z,18.80
2023-01-10T05:28:45.433Z,19.30
2023-01-10T05:31:16.362Z,19.00
2023-01-10T05:33:47.772Z,19.40
2023-01-10T05:36:16.423Z,18.80
2023-01-10T05:38:44.770Z,19.10
2023-01-10T05:41:12.989Z,18.70
2023-01-10T05:43:41.368Z,19.00
2023-01-10T05:46:09.572Z,19.10
2023-01-10T05:48:37.748Z,19.30
2023-01-10T05:51:08.054Z,19.20
2023-01-10T05:53:36.149Z,19.20
2023-01-10T05:56:07.553Z,18.70
2023-01-10T05:58:35.874Z,18.70
2023-01-10T06:01:04.187Z,18.60
2023-01-10T06:03:32.361Z,18.60
2023-01-10T06:06:00.472Z,18.60
2023-01-10T06:08:30.146Z,18.70
2023-01-10T06:10:58.805Z,19.00
2023-01-10T06:13:27.149Z,19.00
2023-01-10T06:15:55.475Z,18.70
2023-01-10T06:18:23.615Z,18.70
2023-01-10T06:20:51.677Z,18.80
2023-01-10T06:23:19.770Z,19.10
2023-01-10T06:25:49.165Z,19.10
2023-01-10T06:28:17.447Z,19.30
2023-01-10T06:30:45.578Z,19.10
2023-01-10T06:33:14.743Z,19.10
2023-01-10T06:35:46.986Z,19.10
2023-01-10T06:38:15.705Z,18.80
2023-01-10T06:40:44.006Z,19.10
2023-01-10T06:43:13.811Z,19.10
2023-01-10T06:45:42.266Z,18.90
2023-01-10T06:48:10.837Z,18.70
2023-01-10T06:50:39.780Z,19.20
2023-01-10T06:53:08.927Z,19.20
2023-01-10T06:55:40.995Z,19.10
2023-01-10T06:58:10.215Z,19.00
2023-01-10T07:00:40.749Z,18.80
2023-01-10T07:03:11.810Z,18.80
2023-01-10T07:05:40.737Z,18.70
2023-01-10T07:08:18.637Z,18.70
2023-01-10T07:10:47.375Z,19.10
2023-01-10T07:13:15.903Z,18.90
2023-01-10T07:15:45.885Z,19.20
2023-01-10T07:18:14.532Z,19.00
2023-01-10T07:20:46.156Z,18.70
2023-01-10T07:23:14.640Z,19.10
2023-01-10T07:25:43.116Z,19.00
2023-01-10T07:28:11.892Z,18.60
2023-01-10T07:31:08.421Z,18.70
2023-01-10T07:33:39.827Z,18.90
2023-01-10T07:36:18.513Z,18.70
2023-01-10T07:38:47.394Z,18.70
2023-01-10T07:41:37.565Z,19.10
2023-01-10T07:44:07.249Z,18.90
2023-01-10T07:47:01.581Z,18.80
2023-01-10T07:49:30.279Z,18.70
2023-01-10T07:51:58.701Z,18.60
2023-01-10T07:54:27.342Z,19.00
2023-01-10T07:56:58.621Z,18.60
2023-01-10T07:59:27.422Z,19.30
2023-01-10T08:01:56.171Z,19.10
2023-01-10T08:04:26.331Z,18.70
2023-01-10T08:06:56.141Z,18.90
2023-01-10T08:09:24.885Z,18.80
2023-01-10T08:11:53.721Z,18.80
2023-01-10T08:14:22.123Z,18.90
2023-01-10T08:16:51.020Z,18.70
2023-01-10T08:19:19.293Z,18.70
2023-01-10T08:21:48.606Z,18.70
2023-01-10T08:24:16.635Z,18.60
2023-01-10T08:26:44.577Z,19.10
2023-01-10T08:29:12.628Z,19.00
2023-01-10T08:31:41.962Z,18.80
2023-01-10T08:34:09.994Z,18.80
2023-01-10T08:36:37.929Z,18.70
2023-01-10T08:39:07.330Z,18.90
2023-01-10T08:41:35.416Z,19.00
2023-01-10T08:44:03.394Z,19.20
2023-01-10T08:46:31.425Z,19.00
2023-01-10T08:48:59.496Z,19.10
2023-01-10T08:51:27.447Z,19.50
2023-01-10T08:53:55.672Z,19.30
2023-01-10T08:56:25.017Z,19.70
2023-01-10T08:58:53.127Z,19.50
2023-01-10T09:01:21.312Z,19.70
2023-01-10T09:03:49.704Z,19.50
2023-01-10T09:06:17.675Z,19.60
2023-01-10T09:08:45.738Z,19.70
2023-01-10T09:11:13.810Z,19.60
2023-01-10T09:13:43.224Z,19.80
2023-01-10T09:16:11.457Z,19.60
2023-01-10T09:18:39.552Z,19.90
2023-01-10T09:21:07.704Z,19.70
2023-01-10T09:23:37.158Z,20.10
2023-01-10T09:26:05.433Z,20.10
2023-01-10T09:28:33.713Z,20.20
2023-01-10T09:31:04.371Z,20.20
2023-01-10T09:33:45.713Z,20.40
2023-01-10T09:36:15.620Z,20.30
2023-01-10T09:38:44.153Z,20.60
2023-01-10T09:41:48.943Z,20.60
2023-01-10T09:44:22.466Z,20.40
2023-01-10T09:47:08.487Z,20.60
2023-01-10T09:49:50.597Z,20.50
2023-01-10T09:52:23.677Z,20.60
2023-01-10T09:54:56.343Z,20.80
2023-01-10T09:57:25.184Z,20.70
2023-01-10T09:59:54.560Z,20.70
2023-01-10T10:02:32.302Z,20.70
2023-01-10T10:05:14.488Z,20.50
2023-01-10T10:07:42.541Z,20.90
2023-01-10T10:10:18.647Z,20.80
2023-01-10T10:12:57.420Z,20.90
2023-01-10T10:15:33.730Z,21.00
2023-01-10T10:18:17.837Z,20.80
2023-01-10T10:20:58.151Z,20.90
2023-01-10T10:23:53.258Z,21.20
2023-01-10T10:26:29.769Z,21.20
2023-01-10T10:29:20.833Z,21.10
2023-01-10T10:31:48.963Z,21.10
2023-01-10T10:34:29.389Z,21.10
2023-01-10T10:37:02.328Z,21.30
2023-01-10T10:39:38.509Z,20.90
2023-01-10T10:42:14.714Z,21.20
2023-01-10T10:44:48.327Z,21.30
2023-01-10T10:47:18.595Z,21.20
2023-01-10T10:49:53.617Z,21.40
2023-01-10T10:52:26.861Z,20.90
2023-01-10T10:54:55.812Z,21.20
2023-01-10T10:57:28.812Z,21.10
2023-01-10T10:59:58.235Z,21.10
2023-01-10T11:02:30.665Z,21.20
2023-01-10T11:05:04.459Z,21.10
2023-01-10T11:07:35.914Z,20.80
2023-01-10T11:10:18.565Z,21.00
2023-01-10T11:12:51.088Z,21.20
2023-01-10T11:15:42.062Z,21.10
2023-01-10T11:18:14.527Z,21.30
2023-01-10T11:20:58.632Z,20.80
2023-01-10T11:23:37.833Z,21.10
2023-01-10T11:26:06.713Z,21.30
2023-01-10T11:28:35.389Z,21.20
2023-01-10T11:31:04.504Z,20.70
2023-01-10T11:33:36.082Z,21.20
2023-01-10T11:36:08.800Z,21.00
2023-01-10T11:38:37.367Z,20.50
2023-01-10T11:41:07.415Z,21.10
2023-01-10T11:43:38.374Z,20.90
2023-01-10T11:46:14.395Z,20.90
2023-01-10T11:51:39.520Z,20.70
2023-01-10T11:54:12.898Z,21.10
2023-01-10T11:56:43.161Z,20.80
2023-01-10T11:59:15.535Z,21.10
2023-01-10T12:01:48.038Z,21.00
2023-01-10T12:04:16.972Z,21.20
2023-01-10T12:06:49.737Z,21.00
2023-01-10T12:09:42.544Z,21.20
2023-01-10T12:12:23.809Z,21.00
2023-01-10T12:14:53.233Z,20.70
2023-01-10T12:17:26.674Z,21.30
2023-01-10T12:19:58.486Z,21.00
2023-01-10T12:22:33.262Z,21.20
2023-01-10T12:25:05.133Z,21.20
2023-01-10T12:27:34.360Z,21.10
2023-01-10T12:30:08.198Z,21.10
2023-01-10T12:32:44.024Z,20.90
2023-01-10T12:35:19.459Z,21.10
2023-01-10T12:37:54.796Z,21.00
2023-01-10T12:40:32.127Z,20.90
2023-01-10T12:43:25.868Z,20.80
2023-01-10T12:45:59.720Z,20.50
2023-01-10T12:48:44.543Z,21.00
2023-01-10T12:51:18.457Z,20.70
2023-01-10T12:53:53.121Z,20.50
2023-01-10T12:56:21.899Z,20.50
2023-01-10T12:58:55.442Z,20.50
2023-01-10T13:01:30.549Z,20.40
2023-01-10T13:04:04.354Z,20.80
2023-01-10T13:06:35.141Z,20.60
2023-01-10T13:09:09.201Z,20.60
2023-01-10T13:11:46.385Z,20.40
2023-01-10T13:14:18.035Z,20.40
2023-01-10T13:16:53.900Z,20.30
2023-01-10T13:19:27.544Z,20.30
2023-01-10T13:22:22.653Z,20.40
2023-01-10T13:25:00.886Z,20.30
2023-01-10T13:27:33.442Z,20.50
2023-01-10T13:30:03.135Z,20.30
2023-01-10T13:32:35.165Z,20.10
2023-01-10T13:35:15.010Z,20.30
2023-01-10T13:37:45.130Z,20.30
2023-01-10T13:40:24.424Z,20.30
2023-01-10T13:43:34.236Z,20.20
2023-01-10T13:46:39.104Z,20.20
2023-01-10T13:49:50.041Z,20.20
2023-01-10T13:52:40.026Z,20.20
2023-01-10T13:55:35.705Z,20.10
2023-01-10T13:58:06.221Z,20.30
2023-01-10T14:01:07.835Z,20.30
2023-01-10T14:03:45.183Z,20.30
2023-01-10T14:06:31.823Z,20.20
2023-01-10T14:09:02.813Z,20.20
2023-01-10T14:11:53.199Z,20.20
2023-01-10T14:14:25.039Z,20.10
2023-01-10T14:16:56.824Z,20.20
2023-01-10T14:19:30.201Z,20.20
2023-01-10T14:22:01.551Z,20.20
2023-01-10T14:24:35.443Z,19.80
2023-01-10T14:27:05.433Z,20.20
2023-01-10T14:29:34.973Z,20.10
2023-01-10T14:32:31.203Z,20.20
2023-01-10T14:35:02.151Z,19.90
2023-01-10T14:37:37.356Z,20.00
2023-01-10T14:40:23.304Z,20.20
2023-01-10T14:42:58.348Z,20.10
2023-01-10T14:45:35.337Z,20.30
2023-01-10T14:48:30.106Z,19.80
2023-01-10T14:51:26.291Z,19.70
2023-01-10T14:54:01.107Z,20.20
2023-01-10T14:56:31.632Z,19.80
2023-01-10T14:59:00.984Z,20.20
2023-01-10T15:01:31.157Z,20.10
2023-01-10T15:03:59.219Z,19.80
2023-01-10T15:06:27.477Z,20.10
2023-01-10T15:09:03.021Z,20.10
2023-01-10T15:11:32.860Z,19.70
2023-01-10T15:14:08.253Z,19.80
2023-01-10T15:16:38.805Z,20.00
2023-01-10T15:19:06.997Z,19.60
2023-01-10T15:21:35.066Z,19.50
2023-01-10T15:24:30.564Z,19.70
2023-01-10T15:27:01.571Z,19.50
2023-01-10T15:29:31.079Z,19.70
2023-01-10T15:32:10.239Z,19.60
2023-01-10T15:34:39.617Z,19.50
2023-01-10T15:37:16.751Z,19.60
2023-01-10T15:39:48.286Z,19.70
2023-01-10T15:42:16.411Z,19.40
2023-01-10T15:44:52.287Z,19.60
2023-01-10T15:47:39.922Z,19.40
2023-01-10T15:50:28.479Z,19.60
2023-01-10T15:52:59.727Z,19.70
2023-01-10T15:55:44.976Z,19.80
2023-01-10T15:58:23.933Z,19.60
2023-01-10T16:00:54.696Z,19.50
2023-01-10T16:03:27.833Z,19.80
2023-01-10T16:05:59.127Z,19.80
2023-01-10T16:08:32.540Z,19.90
2023-01-10T16:11:04.214Z,19.50
2023-01-10T16:13:33.097Z,19.60
2023-01-10T16:16:05.266Z,20.00
2023-01-10T16:18:35.019Z,19.70
2023-01-10T16:21:06.786Z,19.90
2023-01-10T16:23:36.433Z,19.80
2023-01-10T16:26:08.365Z,19.80
2023-01-10T16:28:37.843Z,19.60
2023-01-10T16:31:11.560Z,19.80
2023-01-10T16:33:40.407Z,19.70
2023-01-10T16:36:16.849Z,19.80
2023-01-10T16:38:45.182Z,20.00
2023-01-10T16:41:33.067Z,19.60
2023-01-10T16:44:01.740Z,19.90
2023-01-10T16:46:31.351Z,19.80
2023-01-10T16:48:59.981Z,19.80
2023-01-10T16:51:30.234Z,19.80
2023-01-10T16:53:58.197Z,19.80
2023-01-10T16:56:28.356Z,19.80
2023-01-10T16:58:57.510Z,19.70
2023-01-10T17:01:30.797Z,19.70
2023-01-10T17:03:59.686Z,19.70
2023-01-10T17:06:28.610Z,19.80
2023-01-10T17:08:56.938Z,19.70
2023-01-10T17:11:30.446Z,19.90
2023-01-10T17:14:00.117Z,19.60
2023-01-10T17:16:28.216Z,19.90
2023-01-10T17:18:57.576Z,19.70
2023-01-10T17:21:26.683Z,19.70
2023-01-10T17:23:54.754Z,20.00
2023-01-10T17:26:23.416Z,19.90
2023-01-10T17:28:51.361Z,19.90
2023-01-10T17:31:20.338Z,19.70
2023-01-10T17:33:49.405Z,19.40
2023-01-10T17:36:19.540Z,19.70
2023-01-10T17:38:47.881Z,19.70
2023-01-10T17:41:15.901Z,19.50
2023-01-10T17:43:43.884Z,19.90
2023-01-10T17:46:12.588Z,19.80
2023-01-10T17:48:40.927Z,19.60
2023-01-10T17:51:10.284Z,19.70
2023-01-10T17:53:39.735Z,19.60
2023-01-10T17:56:08.897Z,19.50
2023-01-10T17:58:37.273Z,19.50
2023-01-10T18:01:05.366Z,19.70
2023-01-10T18:03:33.443Z,19.70
2023-01-10T18:06:01.596Z,19.60
2023-01-10T18:08:29.700Z,19.40
2023-01-10T18:11:02.349Z,19.80
2023-01-10T18:13:31.566Z,19.60
2023-01-10T18:16:00.623Z,19.40
2023-01-10T18:18:28.566Z,19.30
2023-01-10T18:21:00.966Z,19.50
2023-01-10T18:23:31.432Z,19.50
2023-01-10T18:26:03.638Z,19.70
2023-01-10T18:28:41.809Z,19.70
2023-01-10T18:31:12.972Z,19.60
2023-01-10T18:33:41.445Z,19.30
2023-01-10T18:36:15.292Z,19.50
2023-01-10T18:38:43.978Z,19.70
2023-01-10T18:41:13.436Z,19.70
2023-01-10T18:43:41.530Z,19.70
2023-01-10T18:46:13.062Z,19.50
2023-01-10T18:48:41.127Z,19.60
2023-01-10T18:51:12.194Z,19.70
2023-01-10T18:53:40.615Z,19.50
2023-01-10T18:56:10.099Z,19.70
2023-01-10T18:58:41.785Z,19.70
2023-01-10T19:01:12.120Z,19.70
2023-01-10T19:03:40.954Z,19.70
2023-01-10T19:06:12.580Z,19.90
2023-01-10T19:08:41.095Z,19.60
2023-01-10T19:11:15.414Z,19.70
2023-01-10T19:13:46.722Z,19.50
2023-01-10T19:16:16.813Z,19.70
2023-01-10T19:18:47.071Z,19.70
2023-01-10T19:21:16.023Z,19.80
2023-01-10T19:23:45.241Z,19.70
2023-01-10T19:26:14.130Z,19.60
2023-01-10T19:28:45.732Z,19.50
2023-01-10T19:31:16.977Z,19.50
2023-01-10T19:33:47.476Z,19.30
2023-01-10T19:36:16.734Z,19.60
2023-01-10T19:38:44.839Z,19.40
2023-01-10T19:41:14.039Z,19.60
2023-01-10T19:43:42.084Z,19.50
2023-01-10T19:46:13.483Z,19.60
2023-01-10T19:48:41.579Z,19.50
2023-01-10T19:51:12.711Z,19.90
2023-01-10T19:53:45.248Z,19.70
2023-01-10T19:56:18.322Z,19.90
2023-01-10T19:58:47.659Z,19.70
2023-01-10T20:01:20.740Z,19.50
2023-01-10T20:03:49.034Z,19.70
2023-01-10T20:06:21.557Z,19.70
2023-01-10T20:08:49.988Z,19.40
2023-01-10T20:11:19.860Z,19.60
2023-01-10T20:13:49.134Z,19.80
2023-01-10T20:16:22.069Z,19.50
2023-01-10T20:18:50.901Z,19.50
2023-01-10T20:21:20.508Z,19.80
2023-01-10T20:23:49.584Z,19.70
2023-01-10T20:26:20.485Z,19.50
2023-01-10T20:28:50.496Z,19.70
2023-01-10T20:31:22.433Z,19.60
2023-01-10T20:33:51.242Z,19.60
2023-01-10T20:36:21.741Z,19.50
2023-01-10T20:38:50.354Z,19.50
2023-01-10T20:41:21.174Z,19.60
2023-01-10T20:43:49.609Z,19.40
2023-01-10T20:46:21.686Z,19.50
2023-01-10T20:48:50.743Z,19.60
2023-01-10T20:51:21.664Z,19.40
2023-01-10T20:53:50.613Z,19.60
2023-01-10T20:56:23.230Z,19.20
2023-01-10T20:58:52.747Z,19.40
2023-01-10T21:01:33.749Z,19.20
2023-01-10T21:04:03.319Z,19.50
2023-01-10T21:06:31.314Z,19.30
2023-01-10T21:09:00.387Z,19.40
2023-01-10T21:11:28.691Z,19.20
2023-01-10T21:13:56.692Z,19.20
2023-01-10T21:16:26.179Z,19.20
2023-01-10T21:18:54.232Z,19.30
2023-01-10T21:21:23.574Z,19.30
2023-01-10T21:23:54.220Z,19.50
2023-01-10T21:26:22.455Z,19.30
2023-01-10T21:28:50.550Z,19.10
2023-01-10T21:31:20.818Z,18.20
2023-01-10T21:33:50.646Z,17.90
2023-01-10T21:36:18.894Z,18.30
2023-01-10T21:38:47.669Z,18.60
2023-01-10T21:41:38.077Z,18.90
2023-01-10T21:44:08.229Z,19.00
2023-01-10T21:46:36.780Z,18.80
2023-01-10T21:49:06.552Z,19.10
2023-01-10T21:51:34.802Z,19.00
2023-01-10T21:54:02.864Z,19.10
2023-01-10T21:56:30.897Z,19.10
2023-01-10T21:58:58.924Z,19.10
2023-01-10T22:01:26.851Z,18.70
2023-01-10T22:03:54.864Z,19.10
2023-01-10T22:06:24.265Z,18.70
2023-01-10T22:08:52.777Z,19.00
2023-01-10T22:11:20.960Z,19.30
2023-01-10T22:13:49.073Z,18.80
2023-01-10T22:16:17.100Z,19.10
2023-01-10T22:18:45.653Z,19.00
2023-01-10T22:21:15.309Z,19.20
2023-01-10T22:23:45.229Z,19.30
2023-01-10T22:26:15.254Z,19.10
2023-01-10T22:28:43.548Z,18.80
2023-01-10T22:31:11.549Z,19.10
2023-01-10T22:33:40.009Z,19.20
2023-01-10T22:36:14.074Z,19.00
2023-01-10T22:38:44.038Z,19.50
2023-01-10T22:41:15.509Z,19.50
2023-01-10T22:43:44.716Z,19.10
2023-01-10T22:46:15.434Z,19.00
2023-01-10T22:48:53.923Z,19.50
2023-01-10T22:51:23.812Z,19.40
2023-01-10T22:53:56.882Z,19.00
2023-01-10T22:56:25.348Z,19.40
2023-01-10T22:58:54.128Z,19.10
2023-01-10T23:01:24.804Z,19.20
2023-01-10T23:03:53.603Z,19.30
2023-01-10T23:06:21.901Z,18.90
2023-01-10T23:08:50.553Z,19.20
2023-01-10T23:11:22.107Z,19.40
2023-01-10T23:13:55.987Z,19.30
2023-01-10T23:16:28.734Z,19.50
2023-01-10T23:18:57.825Z,18.90
2023-01-10T23:21:28.647Z,19.50
2023-01-10T23:23:57.326Z,19.50
2023-01-10T23:26:26.877Z,19.40
2023-01-10T23:28:55.116Z,19.40
2023-01-10T23:31:25.927Z,19.40
2023-01-10T23:33:54.378Z,19.40
2023-01-10T23:36:23.847Z,19.20
2023-01-10T23:38:52.696Z,18.90
2023-01-10T23:41:21.680Z,19.20
2023-01-10T23:43:52.991Z,19.50
2023-01-10T23:46:24.443Z,19.30
2023-01-10T23:48:52.735Z,19.00
2023-01-10T23:51:20.939Z,19.20
2023-01-10T23:53:49.027Z,19.00
2023-01-10T23:56:17.405Z,18.80
2023-01-10T23:58:45.820Z,19.20
